Time;durP1;ratioP1;P1;durP2;ratioP2;P2;SDS_P1;SDS_P2;PMS_P1;PMS_P2;Temp;Humidity;BMP_temperature;BMP_pressure;BME280_temperature;BME280_humidity;BME280_pressure;Samples;Min_cycle;Max_cycle;Signal;HPM_P1;HPM_P2
2020/12/19 00:00:26;;;;;;;397.07;87.17;;;;;;;-2.24;100.00;100077.88;2123297;27;20216;-80
2020/12/19 00:01:30;;;;;;;371.92;86.10;;;;;;;-2.24;100.00;100083.13;2123794;27;20418;-80
2020/12/19 00:02:31;;;;;;;378.95;80.97;;;;;;;-2.28;100.00;100073.03;2123518;27;20219;-82
2020/12/19 00:03:32;;;;;;;332.77;80.82;;;;;;;-2.16;100.00;100080.38;2123494;27;20219;-82
2020/12/19 00:04:33;;;;;;;399.73;86.30;;;;;;;-2.19;100.00;100085.97;2123208;27;20220;-83
2020/12/19 00:05:33;;;;;;;318.00;79.45;;;;;;;-2.21;100.00;100080.13;2113742;28;20213;-82
2020/12/19 00:06:35;;;;;;;374.50;82.50;;;;;;;-2.22;100.00;100078.50;2114334;28;20256;-83
2020/12/19 00:07:35;;;;;;;293.67;78.32;;;;;;;-2.19;100.00;100083.34;2122734;27;20232;-83
2020/12/19 00:08:38;;;;;;;339.97;86.63;;;;;;;-2.25;100.00;100074.47;2113323;28;20304;-83
2020/12/19 00:09:39;;;;;;;409.83;90.10;;;;;;;-2.20;100.00;100082.53;2113970;27;20229;-82
2020/12/19 00:10:40;;;;;;;352.97;87.57;;;;;;;-2.28;100.00;100062.56;2122955;27;20220;-82
2020/12/19 00:11:41;;;;;;;282.42;84.22;;;;;;;-2.19;100.00;100085.97;2123464;27;20220;-83
2020/12/19 00:12:45;;;;;;;295.50;77.33;;;;;;;-2.17;100.00;100069.13;2113825;28;20236;-82
2020/12/19 00:13:46;;;;;;;267.58;75.63;;;;;;;-2.08;100.00;100080.25;2105621;28;20469;-82
2020/12/19 00:14:48;;;;;;;327.33;84.03;;;;;;;-2.13;100.00;100074.75;2114842;28;20285;-82
2020/12/19 00:15:49;;;;;;;288.20;80.18;;;;;;;-2.09;100.00;100083.84;2114103;28;20304;-82
2020/12/19 00:16:51;;;;;;;339.35;81.35;;;;;;;-2.04;100.00;100084.09;2114663;28;20227;-82
2020/12/19 00:17:51;;;;;;;522.83;97.15;;;;;;;-2.12;100.00;100087.63;2113880;28;20698;-76
2020/12/19 00:18:53;;;;;;;372.87;84.43;;;;;;;-2.16;100.00;100069.91;2113617;28;20626;-81
2020/12/19 00:19:53;;;;;;;442.40;92.97;;;;;;;-2.10;100.00;100082.22;2114835;28;20220;-82
2020/12/19 00:20:55;;;;;;;506.07;94.57;;;;;;;-2.13;100.00;100090.44;2113414;28;20272;-83
2020/12/19 00:21:55;;;;;;;531.75;97.63;;;;;;;-2.17;100.00;100081.34;2106210;28;20224;-82
2020/12/19 00:22:57;;;;;;;341.83;87.57;;;;;;;-2.18;100.00;100077.94;2114455;28;27819;-83
2020/12/19 00:23:57;;;;;;;512.25;94.43;;;;;;;-2.23;100.00;100079.50;2114241;28;20225;-82
2020/12/19 00:24:58;;;;;;;457.90;95.13;;;;;;;-2.31;100.00;100078.63;2115037;28;20266;-80
2020/12/19 00:25:59;;;;;;;322.55;88.45;;;;;;;-2.28;100.00;100078.25;2115996;28;20228;-80
2020/12/19 00:27:01;;;;;;;425.03;96.83;;;;;;;-2.24;100.00;100093.56;2115484;28;20695;-82
2020/12/19 00:28:01;;;;;;;395.73;98.78;;;;;;;-2.28;100.00;100085.28;2115847;28;20232;-82
2020/12/19 00:29:03;;;;;;;352.33;92.23;;;;;;;-2.29;100.00;100086.28;2116197;28;20239;-83
2020/12/19 00:30:04;;;;;;;287.08;89.60;;;;;;;-2.26;100.00;100080.66;2116240;28;20224;-82
2020/12/19 00:31:06;;;;;;;288.33;91.43;;;;;;;-2.28;100.00;100083.47;2115821;28;20238;-83
2020/12/19 00:32:08;;;;;;;433.73;100.38;;;;;;;-2.27;100.00;100092.94;2115578;28;20233;-79
2020/12/19 00:33:09;;;;;;;348.85;92.88;;;;;;;-2.33;100.00;100083.25;2116344;27;20220;-82
2020/12/19 00:34:10;;;;;;;376.20;97.45;;;;;;;-2.28;100.00;100083.47;2125568;27;20232;-80
2020/12/19 00:35:11;;;;;;;382.40;95.27;;;;;;;-2.30;100.00;100088.09;2126467;27;20315;-80
2020/12/19 00:36:12;;;;;;;341.20;94.85;;;;;;;-2.36;100.00;100077.56;2125882;27;20705;-83
2020/12/19 00:37:13;;;;;;;383.43;93.27;;;;;;;-2.29;100.00;100086.28;2125832;27;20635;-81
2020/12/19 00:38:14;;;;;;;359.02;93.63;;;;;;;-2.36;100.00;100072.34;2116453;28;20274;-80
2020/12/19 00:39:15;;;;;;;372.57;95.50;;;;;;;-2.34;100.00;100092.09;2116544;28;20666;-80
2020/12/19 00:40:16;;;;;;;342.65;88.45;;;;;;;-2.32;100.00;100087.47;2116276;28;20227;-80
2020/12/19 00:41:18;;;;;;;304.40;89.47;;;;;;;-2.34;100.00;100083.44;2116447;28;20223;-81
2020/12/19 00:42:19;;;;;;;402.42;93.68;;;;;;;-2.34;100.00;100094.69;2116573;28;20635;-80
2020/12/19 00:43:20;;;;;;;399.97;99.20;;;;;;;-2.38;100.00;100098.66;2117113;28;20243;-81
2020/12/19 00:44:21;;;;;;;397.80;92.40;;;;;;;-2.41;100.00;100095.63;2117128;28;20216;-81
2020/12/19 00:45:22;;;;;;;380.27;95.40;;;;;;;-2.41;100.00;100104.25;2108710;28;20252;-74
2020/12/19 00:46:24;;;;;;;414.50;94.68;;;;;;;-2.43;100.00;100102.81;2117522;28;20220;-80
2020/12/19 00:47:25;;;;;;;363.10;89.07;;;;;;;-2.48;100.00;100099.97;2126434;27;20227;-82
2020/12/19 00:48:26;;;;;;;306.15;89.68;;;;;;;-2.49;100.00;100104.38;2117060;28;20292;-82
2020/12/19 00:49:27;;;;;;;573.67;108.03;;;;;;;-2.52;100.00;100104.72;2117650;28;20258;-80
2020/12/19 00:50:28;;;;;;;365.25;92.35;;;;;;;-2.50;100.00;100107.19;2128948;27;20220;-81
2020/12/19 00:51:29;;;;;;;407.07;94.63;;;;;;;-2.60;100.00;100090.00;2117569;28;20288;-81
2020/12/19 00:52:30;;;;;;;396.58;93.03;;;;;;;-2.54;100.00;100103.31;2109338;28;20221;-80
2020/12/19 00:53:31;;;;;;;412.87;90.30;;;;;;;-2.54;100.00;100100.69;2116323;28;20221;-83
2020/12/19 00:54:31;;;;;;;418.20;92.00;;;;;;;-2.56;100.00;100095.66;2117411;28;20229;-83
2020/12/19 00:55:33;;;;;;;430.77;95.47;;;;;;;-2.62;100.00;100084.13;2117556;28;20224;-80
2020/12/19 00:56:33;;;;;;;387.38;92.07;;;;;;;-2.52;100.00;100093.47;2117678;28;20251;-83
2020/12/19 00:57:34;;;;;;;326.13;91.30;;;;;;;-2.52;100.00;100091.66;2126159;27;20279;-83
2020/12/19 00:58:35;;;;;;;336.75;89.25;;;;;;;-2.53;100.00;100092.66;2125801;27;20277;-81
2020/12/19 00:59:36;;;;;;;385.50;94.73;;;;;;;-2.57;100.00;100086.22;2126670;27;20276;-83
2020/12/19 01:00:37;;;;;;;325.67;91.15;;;;;;;-2.53;100.00;100082.22;2116427;28;20710;-81
2020/12/19 01:01:39;;;;;;;336.77;91.10;;;;;;;-2.44;100.00;100091.56;2108385;28;20713;-83
2020/12/19 01:02:40;;;;;;;320.70;89.85;;;;;;;-2.42;100.00;100094.00;2116969;28;20229;-82
2020/12/19 01:03:42;;;;;;;313.47;86.23;;;;;;;-2.47;100.00;100089.31;2117634;28;20805;-83
2020/12/19 01:04:42;;;;;;;411.15;92.05;;;;;;;-2.51;100.00;100082.88;2118260;28;20828;-80
2020/12/19 01:05:44;;;;;;;315.70;84.60;;;;;;;-2.50;100.00;100087.09;2109724;28;20225;-80
2020/12/19 01:06:44;;;;;;;368.75;89.30;;;;;;;-2.48;100.00;100086.91;2117204;28;20220;-82
2020/12/19 01:07:45;;;;;;;416.73;84.50;;;;;;;-2.45;100.00;100086.50;2126117;27;20227;-83
2020/12/19 01:08:47;;;;;;;444.80;86.95;;;;;;;-2.47;100.00;100094.53;2117571;28;20226;-82
2020/12/19 01:09:49;;;;;;;476.85;92.13;;;;;;;-2.54;100.00;100093.66;2107937;28;20221;-83
2020/12/19 01:10:49;;;;;;;365.92;85.90;;;;;;;-2.59;100.00;100090.81;2108432;28;20217;-83
2020/12/19 01:11:50;;;;;;;381.57;84.50;;;;;;;-2.63;100.00;100097.38;2117443;28;20271;-81
2020/12/19 01:12:51;;;;;;;337.95;83.20;;;;;;;-2.68;100.00;100091.94;2115887;28;20224;-83
2020/12/19 01:13:53;;;;;;;385.50;88.67;;;;;;;-2.69;100.00;100095.53;2115003;28;20367;-78
2020/12/19 01:14:54;;;;;;;344.13;90.47;;;;;;;-2.67;100.00;100094.34;2123949;27;20604;-81
2020/12/19 01:15:55;;;;;;;362.83;87.97;;;;;;;-2.65;100.00;100088.94;2112742;28;20225;-81
2020/12/19 01:16:57;;;;;;;358.85;86.07;;;;;;;-2.68;100.00;100087.50;2113196;28;20228;-82
2020/12/19 01:17:58;;;;;;;316.58;82.43;;;;;;;-2.73;100.00;100091.66;2122204;27;20243;-80
2020/12/19 01:19:04;;;;;;;428.67;91.43;;;;;;;-2.78;100.00;100081.78;2112891;28;20862;-81
2020/12/19 01:20:05;;;;;;;293.88;78.97;;;;;;;-2.75;100.00;100083.19;2114541;27;20220;-81
2020/12/19 01:21:11;;;;;;;456.65;83.35;;;;;;;-2.75;100.00;100091.84;2115434;28;20232;-81
2020/12/19 01:22:12;;;;;;;329.45;72.30;;;;;;;-2.81;100.00;100091.75;2108612;28;20252;-81
2020/12/19 01:23:13;;;;;;;358.95;76.18;;;;;;;-2.81;100.00;100096.97;2116380;28;20221;-81
2020/12/19 01:24:14;;;;;;;369.87;79.53;;;;;;;-2.81;100.00;100099.59;2126062;27;20239;-81
2020/12/19 01:25:15;;;;;;;320.35;73.90;;;;;;;-2.85;100.00;100097.38;2117368;28;20259;-81
2020/12/19 01:26:17;;;;;;;347.13;76.30;;;;;;;-2.88;100.00;100096.91;2116950;28;20217;-81
2020/12/19 01:27:18;;;;;;;319.35;77.07;;;;;;;-2.92;100.00;100093.84;2126615;27;20228;-81
2020/12/19 01:28:19;;;;;;;292.13;75.53;;;;;;;-2.95;100.00;100085.59;2126292;27;20273;-81
2020/12/19 01:29:21;;;;;;;275.00;77.43;;;;;;;-2.94;100.00;100098.47;2126212;27;20212;-80
2020/12/19 01:30:22;;;;;;;230.02;70.55;;;;;;;-2.95;100.00;100099.44;2110057;28;20229;-77
2020/12/19 01:31:23;;;;;;;301.77;78.82;;;;;;;-2.98;100.00;100085.94;2106887;28;20588;-81
2020/12/19 01:32:25;;;;;;;233.45;73.30;;;;;;;-2.93;100.00;100087.03;2105454;28;20217;-81
2020/12/19 01:33:26;;;;;;;251.40;72.32;;;;;;;-2.92;100.00;100082.59;2097036;28;20229;-81
2020/12/19 01:34:27;;;;;;;274.23;72.70;;;;;;;-2.86;100.00;100090.53;2105282;28;20296;-81
2020/12/19 01:35:28;;;;;;;331.92;77.28;;;;;;;-2.83;100.00;100089.34;2105420;28;20225;-81
2020/12/19 01:36:29;;;;;;;309.93;78.40;;;;;;;-2.85;100.00;100086.91;2105500;28;20258;-81
2020/12/19 01:37:29;;;;;;;337.63;82.53;;;;;;;-2.83;100.00;100089.34;2105381;28;20371;-81
2020/12/19 01:38:31;;;;;;;325.93;82.80;;;;;;;-2.81;100.00;100081.31;2096503;28;20218;-81
2020/12/19 01:39:31;;;;;;;341.48;78.25;;;;;;;-2.82;100.00;100087.53;2105328;28;21085;-84
2020/12/19 01:40:33;;;;;;;305.73;77.73;;;;;;;-2.82;100.00;100084.94;2107176;28;20243;-82
2020/12/19 01:41:33;;;;;;;306.45;79.47;;;;;;;-2.78;100.00;100078.31;2104977;28;20217;-84
2020/12/19 01:42:34;;;;;;;270.03;77.63;;;;;;;-2.86;100.00;100069.63;2105485;28;20225;-82
2020/12/19 01:43:44;;;;;;;334.80;80.68;;;;;;;-2.78;100.00;100080.94;2104975;28;20222;-82
2020/12/19 01:44:45;;;;;;;263.95;74.10;;;;;;;-2.77;100.00;100072.13;2118999;27;20564;-82
2020/12/19 01:45:47;;;;;;;325.00;82.82;;;;;;;-2.72;100.00;100072.38;2122371;27;20673;-81
2020/12/19 01:46:54;;;;;;;413.35;82.30;;;;;;;-2.74;100.00;100076.97;2112769;28;20220;-82
2020/12/19 01:47:56;;;;;;;264.35;75.57;;;;;;;-2.75;100.00;100081.41;2105410;28;20217;-81
2020/12/19 01:48:58;;;;;;;269.42;73.57;;;;;;;-2.83;100.00;100062.41;2105149;28;20304;-81
2020/12/19 01:49:59;;;;;;;282.40;77.45;;;;;;;-2.73;100.00;100074.19;2105004;28;20229;-81
2020/12/19 01:51:00;;;;;;;238.00;72.80;;;;;;;-2.72;100.00;100075.00;2104906;28;20264;-81
2020/12/19 01:52:02;;;;;;;349.63;84.07;;;;;;;-2.73;100.00;100073.38;2116365;28;20220;-80
2020/12/19 01:53:03;;;;;;;282.40;78.00;;;;;;;-2.72;100.00;100075.00;2108953;28;20277;-81
2020/12/19 01:54:07;;;;;;;370.52;81.65;;;;;;;-2.69;100.00;100075.44;2108206;28;20254;-80
2020/12/19 01:55:08;;;;;;;447.08;85.68;;;;;;;-2.71;100.00;100074.00;2116780;28;20316;-80
2020/12/19 01:56:09;;;;;;;478.92;86.80;;;;;;;-2.66;100.00;100066.41;2125364;27;20231;-83
2020/12/19 01:57:12;;;;;;;411.75;83.97;;;;;;;-2.66;100.00;100064.63;2116997;28;20229;-81
2020/12/19 01:58:13;;;;;;;378.13;77.55;;;;;;;-2.70;100.00;100057.31;2117204;28;20679;-81
2020/12/19 01:59:15;;;;;;;339.77;74.60;;;;;;;-2.75;100.00;100059.69;2125441;28;20543;-81
2020/12/19 02:00:16;;;;;;;380.35;81.28;;;;;;;-2.72;100.00;100065.34;2126194;28;20546;-82
2020/12/19 02:01:18;;;;;;;348.40;80.13;;;;;;;-2.78;100.00;100049.59;2117369;28;20246;-81
2020/12/19 02:02:23;;;;;;;300.23;74.78;;;;;;;-2.71;100.00;100056.53;2116892;28;20241;-81
2020/12/19 02:03:24;;;;;;;313.05;80.20;;;;;;;-2.73;100.00;100052.47;2107986;28;20228;-81
2020/12/19 02:04:26;;;;;;;385.15;80.13;;;;;;;-2.71;100.00;100055.72;2108836;28;20698;-81
2020/12/19 02:05:26;;;;;;;439.25;85.72;;;;;;;-2.76;100.00;100048.44;2117305;28;20778;-81
2020/12/19 02:06:28;;;;;;;396.70;85.30;;;;;;;-2.68;100.00;100055.34;2116903;28;20560;-81
2020/12/19 02:07:29;;;;;;;340.48;80.25;;;;;;;-2.70;100.00;100044.25;2118298;28;20307;-81
2020/12/19 02:08:30;;;;;;;387.57;78.63;;;;;;;-2.69;100.00;100038.88;2109456;28;20217;-81
2020/12/19 02:09:35;;;;;;;455.50;83.00;;;;;;;-2.66;100.00;100045.53;2109258;28;20229;-81
2020/12/19 02:10:36;;;;;;;303.95;75.25;;;;;;;-2.66;100.00;100042.91;2118604;27;20219;-81
2020/12/19 02:11:37;;;;;;;295.85;74.80;;;;;;;-2.65;100.00;100040.13;2117064;28;20671;-80
2020/12/19 02:12:38;;;;;;;348.00;79.87;;;;;;;-2.66;100.00;100042.91;2117603;28;20623;-80
2020/12/19 02:13:39;;;;;;;336.83;78.90;;;;;;;-2.67;100.00;100041.31;2107375;28;20221;-81
2020/12/19 02:14:40;;;;;;;336.10;82.77;;;;;;;-2.60;100.00;100043.00;2097528;28;20727;-80
2020/12/19 02:15:42;;;;;;;337.65;80.63;;;;;;;-2.60;100.00;100042.19;2106552;28;20565;-80
2020/12/19 02:16:53;;;;;;;293.08;76.18;;;;;;;-2.59;100.00;100039.38;2106017;28;20221;-80
2020/12/19 02:17:54;;;;;;;370.42;83.70;;;;;;;-2.61;100.00;100040.53;2116362;27;20220;-80
2020/12/19 02:18:56;;;;;;;313.07;81.07;;;;;;;-2.59;100.00;100039.38;2114488;28;20307;-81
2020/12/19 02:19:57;;;;;;;438.75;85.32;;;;;;;-2.58;100.00;100038.38;2106178;28;20232;-81
2020/12/19 02:20:58;;;;;;;386.63;83.53;;;;;;;-2.55;100.00;100042.41;2114914;28;20224;-81
2020/12/19 02:22:00;;;;;;;361.93;81.97;;;;;;;-2.56;100.00;100038.19;2114361;28;20228;-81
2020/12/19 02:23:02;;;;;;;320.33;77.18;;;;;;;-2.56;100.00;100035.56;2106709;28;20567;-81
2020/12/19 02:24:04;;;;;;;313.85;79.00;;;;;;;-2.57;100.00;100041.78;2106190;28;20220;-81
2020/12/19 02:25:05;;;;;;;277.55;76.68;;;;;;;-2.67;100.00;100021.22;2114688;28;20225;-81
2020/12/19 02:26:06;;;;;;;392.42;80.72;;;;;;;-2.56;100.00;100035.56;2115024;28;20217;-81
2020/12/19 02:27:07;;;;;;;374.27;81.80;;;;;;;-2.57;100.00;100031.34;2114281;28;20220;-75
2020/12/19 02:28:08;;;;;;;393.17;80.78;;;;;;;-2.59;100.00;100031.53;2114625;28;20227;-80
2020/12/19 02:29:09;;;;;;;394.88;77.72;;;;;;;-2.58;100.00;100029.72;2106110;28;20229;-81
2020/12/19 02:30:10;;;;;;;392.52;77.25;;;;;;;-2.59;100.00;100028.94;2105392;28;20605;-81
2020/12/19 02:31:11;;;;;;;305.50;73.00;;;;;;;-2.54;100.00;100033.56;2114985;28;20251;-81
2020/12/19 02:32:12;;;;;;;384.02;79.95;;;;;;;-2.52;100.00;100022.94;2114654;28;20232;-81
2020/12/19 02:33:13;;;;;;;404.07;82.27;;;;;;;-2.54;100.00;100025.75;2114288;28;20224;-81
2020/12/19 02:34:14;;;;;;;426.77;81.38;;;;;;;-2.51;100.00;100024.59;2105744;28;20256;-81
2020/12/19 02:35:15;;;;;;;418.13;77.97;;;;;;;-2.54;100.00;100028.34;2114460;28;20228;-81
2020/12/19 02:36:16;;;;;;;371.90;78.75;;;;;;;-2.60;100.00;100022.09;2124245;27;20224;-81
2020/12/19 02:37:17;;;;;;;354.50;79.07;;;;;;;-2.87;100.00;99989.69;2114452;28;20795;-81
2020/12/19 02:38:18;;;;;;;400.45;77.88;;;;;;;-2.63;100.00;100026.88;2114567;28;20220;-82
2020/12/19 02:39:20;;;;;;;535.30;86.20;;;;;;;-2.63;100.00;100029.47;2114849;28;20781;-81
2020/12/19 02:40:21;;;;;;;466.15;82.85;;;;;;;-2.67;100.00;100029.06;2114737;27;20220;-81
2020/12/19 02:41:22;;;;;;;514.07;87.10;;;;;;;-2.66;100.00;100027.25;2123478;27;20232;-78
2020/12/19 02:42:23;;;;;;;422.58;80.70;;;;;;;-2.65;100.00;100027.06;2123597;27;20224;-80
2020/12/19 02:43:24;;;;;;;366.77;75.40;;;;;;;-2.68;100.00;100035.28;2123607;27;20333;-80
2020/12/19 02:44:25;;;;;;;535.00;89.95;;;;;;;-2.63;100.00;100037.31;2124143;27;20235;-80
2020/12/19 02:45:26;;;;;;;447.70;87.90;;;;;;;-2.66;100.00;100030.66;2115122;28;20224;-80
2020/12/19 02:46:27;;;;;;;376.73;75.67;;;;;;;-2.65;100.00;100031.47;2106962;28;20229;-80
2020/12/19 02:47:28;;;;;;;342.17;76.25;;;;;;;-2.66;100.00;100029.84;2115561;28;20342;-80
2020/12/19 02:48:29;;;;;;;486.17;85.70;;;;;;;-2.66;100.00;100022.84;2115015;28;20258;-80
2020/12/19 02:49:30;;;;;;;425.20;82.20;;;;;;;-2.63;100.00;100016.41;2115392;28;20224;-80
2020/12/19 02:50:31;;;;;;;252.00;70.87;;;;;;;-2.62;100.00;100018.84;2114882;28;20307;-80
2020/12/19 02:51:32;;;;;;;408.70;86.78;;;;;;;-2.60;100.00;100016.06;2115101;28;20225;-80
2020/12/19 02:52:33;;;;;;;481.10;88.87;;;;;;;-2.59;100.00;100017.69;2124519;27;20307;-80
2020/12/19 02:53:33;;;;;;;420.83;81.57;;;;;;;-2.59;100.00;100013.25;2124764;27;20220;-80
2020/12/19 02:54:35;;;;;;;337.43;81.33;;;;;;;-2.54;100.00;100010.06;2124740;27;20659;-80
2020/12/19 02:55:36;;;;;;;400.20;83.38;;;;;;;-2.54;100.00;100014.47;2115726;28;20590;-81
2020/12/19 02:56:37;;;;;;;355.40;81.87;;;;;;;-2.55;100.00;100003.22;2115445;28;20240;-79
2020/12/19 02:57:38;;;;;;;407.98;82.22;;;;;;;-2.51;100.00;100006.28;2116156;28;20718;-80
2020/12/19 02:58:39;;;;;;;402.77;81.17;;;;;;;-2.54;100.00;99999.63;2114529;28;20666;-80
2020/12/19 02:59:40;;;;;;;346.13;79.93;;;;;;;-2.51;100.00;100007.09;2114632;28;20262;-80
2020/12/19 03:00:41;;;;;;;426.00;80.60;;;;;;;-2.56;100.00;100005.03;2114712;28;20286;-80
2020/12/19 03:01:42;;;;;;;450.75;84.55;;;;;;;-2.53;100.00;100000.44;2114145;28;20232;-80
2020/12/19 03:02:43;;;;;;;432.47;82.20;;;;;;;-2.60;100.00;99990.75;2115132;28;20311;-81
2020/12/19 03:03:44;;;;;;;312.05;76.65;;;;;;;-2.54;100.00;100004.84;2114104;28;20224;-81
2020/12/19 03:04:45;;;;;;;405.60;86.37;;;;;;;-2.53;100.00;99998.63;2114838;28;20235;-81
2020/12/19 03:05:46;;;;;;;332.35;79.70;;;;;;;-2.52;100.00;100002.84;2113614;28;20224;-81
2020/12/19 03:06:47;;;;;;;330.60;90.67;;;;;;;-2.39;100.00;100008.19;2105503;28;20217;-81
2020/12/19 03:07:47;;;;;;;370.23;94.20;;;;;;;-2.35;100.00;99998.97;2114746;28;20748;-81
2020/12/19 03:08:49;;;;;;;508.63;97.10;;;;;;;-2.11;100.00;100020.47;2123232;27;20230;-81
2020/12/19 03:09:50;;;;;;;553.30;95.65;;;;;;;-2.00;100.00;100002.47;2114069;28;20220;-81
2020/12/19 03:10:51;;;;;;;414.08;80.50;;;;;;;-2.09;100.00;100024.50;2106377;28;20225;-80
2020/12/19 03:11:52;;;;;;;395.85;82.13;;;;;;;-2.19;100.00;100008.34;2114648;28;20662;-78
2020/12/19 03:12:53;;;;;;;464.50;86.17;;;;;;;-2.20;100.00;100009.34;2117919;28;20312;-80
2020/12/19 03:13:54;;;;;;;315.88;74.13;;;;;;;-2.23;100.00;100001.09;2108629;28;20241;-81
2020/12/19 03:14:55;;;;;;;363.20;75.57;;;;;;;-2.22;100.00;100002.72;2118013;28;20228;-80
2020/12/19 03:15:56;;;;;;;380.50;76.18;;;;;;;-2.29;100.00;100003.44;2117897;28;20224;-81
2020/12/19 03:16:57;;;;;;;407.80;80.20;;;;;;;-2.37;100.00;99989.72;2117238;28;20296;-80
2020/12/19 03:17:58;;;;;;;531.88;86.07;;;;;;;-2.41;100.00;99997.13;2126169;27;20216;-81
2020/12/19 03:18:59;;;;;;;470.20;83.30;;;;;;;-2.40;100.00;99996.13;2126500;27;20251;-81
2020/12/19 03:20:00;;;;;;;330.30;73.70;;;;;;;-2.46;100.00;99983.81;2117588;28;20239;-81
2020/12/19 03:21:01;;;;;;;295.00;73.37;;;;;;;-2.41;100.00;99997.13;2117470;28;20292;-81
2020/12/19 03:22:02;;;;;;;287.17;73.90;;;;;;;-2.36;100.00;99997.34;2117431;28;20236;-81
2020/12/19 03:23:03;;;;;;;287.90;73.70;;;;;;;-2.40;100.00;99993.53;2117182;28;20790;-81
2020/12/19 03:24:05;;;;;;;517.63;89.93;;;;;;;-2.40;100.00;99987.50;2126699;27;20290;-80
2020/12/19 03:25:08;;;;;;;328.08;76.80;;;;;;;-2.34;100.00;99992.78;2126586;27;20307;-81
2020/12/19 03:26:09;;;;;;;402.15;82.00;;;;;;;-2.35;100.00;99992.94;2126100;27;20625;-81
2020/12/19 03:27:10;;;;;;;293.73;71.90;;;;;;;-2.33;100.00;99996.19;2117049;28;20232;-81
2020/12/19 03:28:11;;;;;;;311.98;72.88;;;;;;;-2.32;100.00;100000.41;2109282;28;20225;-80
2020/12/19 03:29:12;;;;;;;329.73;71.07;;;;;;;-2.31;100.00;99997.63;2109477;28;20289;-81
2020/12/19 03:30:13;;;;;;;356.00;74.93;;;;;;;-2.31;100.00;100002.84;2118891;28;20224;-80
2020/12/19 03:31:14;;;;;;;349.33;73.83;;;;;;;-2.35;100.00;99996.34;2127179;27;20284;-80
2020/12/19 03:32:15;;;;;;;399.75;76.22;;;;;;;-2.34;100.00;99998.00;2127595;27;20215;-81
2020/12/19 03:33:16;;;;;;;516.23;79.47;;;;;;;-2.35;100.00;100001.59;2117256;28;20216;-81
2020/12/19 03:34:17;;;;;;;404.15;74.97;;;;;;;-2.36;100.00;99997.34;2117677;28;20311;-80
2020/12/19 03:35:18;;;;;;;410.03;72.00;;;;;;;-2.38;100.00;99988.09;2127170;27;20227;-80
2020/12/19 03:36:20;;;;;;;436.77;74.38;;;;;;;-2.39;100.00;99984.69;2118959;28;20221;-80
2020/12/19 03:37:21;;;;;;;405.38;71.68;;;;;;;-2.41;100.00;99985.88;2109903;28;20221;-80
2020/12/19 03:38:22;;;;;;;362.90;77.27;;;;;;;-2.46;100.00;99975.97;2108784;28;20239;-78
2020/12/19 03:39:22;;;;;;;345.70;68.10;;;;;;;-2.50;100.00;99969.53;2100830;28;20214;-80
2020/12/19 03:40:25;;;;;;;383.27;74.43;;;;;;;-2.44;100.00;99979.19;2100911;28;20356;-79
2020/12/19 03:41:25;;;;;;;409.13;73.00;;;;;;;-2.47;100.00;99971.75;2111965;28;20222;-80
2020/12/19 03:42:27;;;;;;;424.57;74.13;;;;;;;-2.52;100.00;99963.66;2110434;28;20226;-81
2020/12/19 03:43:28;;;;;;;374.52;71.95;;;;;;;-2.47;100.00;99969.13;2102219;28;20226;-81
2020/12/19 03:44:29;;;;;;;387.05;72.93;;;;;;;-2.50;100.00;99963.50;2101794;28;20222;-81
2020/12/19 03:45:30;;;;;;;354.47;72.67;;;;;;;-2.60;100.00;99950.75;2110182;28;20243;-81
2020/12/19 03:46:31;;;;;;;267.42;72.15;;;;;;;-2.48;100.00;99964.91;2125105;27;20215;-81
2020/12/19 03:47:32;;;;;;;312.17;74.17;;;;;;;-2.47;100.00;99958.69;2127532;27;20216;-81
2020/12/19 03:48:33;;;;;;;406.27;81.10;;;;;;;-2.49;100.00;99954.66;2118535;28;20233;-81
2020/12/19 03:49:34;;;;;;;296.07;68.73;;;;;;;-2.42;100.00;99956.31;2110488;28;20221;-81
2020/12/19 03:50:34;;;;;;;365.05;73.25;;;;;;;-2.41;100.00;99952.72;2103742;28;20293;-81
2020/12/19 03:51:36;;;;;;;387.17;72.60;;;;;;;-2.39;100.00;99955.94;2102210;28;20237;-81
2020/12/19 03:52:36;;;;;;;423.80;78.65;;;;;;;-2.44;100.00;99963.53;2103381;28;20230;-75
2020/12/19 03:53:38;;;;;;;397.63;76.97;;;;;;;-2.48;100.00;99959.69;2102075;28;20229;-79
2020/12/19 03:54:38;;;;;;;304.17;71.28;;;;;;;-2.43;100.00;99957.31;2110191;28;20298;-81
2020/12/19 03:55:40;;;;;;;249.07;65.90;;;;;;;-2.50;100.00;99958.28;2108341;28;20229;-81
2020/12/19 03:56:41;;;;;;;339.15;70.45;;;;;;;-2.44;100.00;99960.91;2107739;28;20229;-81
2020/12/19 03:57:43;;;;;;;291.17;68.47;;;;;;;-2.41;100.00;99955.31;2108632;28;20229;-81
2020/12/19 03:58:43;;;;;;;403.65;71.43;;;;;;;-2.43;100.00;99953.88;2120933;27;20549;-80
2020/12/19 03:59:45;;;;;;;310.30;63.63;;;;;;;-2.50;100.00;99956.47;2115090;28;20263;-81
2020/12/19 04:00:45;;;;;;;223.50;60.05;;;;;;;-2.45;100.00;99954.06;2115961;28;20712;-80
2020/12/19 04:01:47;;;;;;;272.77;63.33;;;;;;;-2.48;100.00;99949.25;2115653;28;20220;-80
2020/12/19 04:02:48;;;;;;;272.58;68.32;;;;;;;-2.51;100.00;99956.66;2107511;28;20221;-80
2020/12/19 04:03:49;;;;;;;288.40;65.53;;;;;;;-2.51;100.00;99954.84;2115515;28;20240;-80
2020/12/19 04:04:49;;;;;;;376.23;68.05;;;;;;;-2.48;100.00;99957.06;2115437;28;20225;-81
2020/12/19 04:05:51;;;;;;;381.17;69.07;;;;;;;-2.51;100.00;99951.44;2107564;28;20213;-80
2020/12/19 04:06:51;;;;;;;305.48;66.90;;;;;;;-2.53;100.00;99950.78;2115041;28;20224;-75
2020/12/19 04:07:53;;;;;;;265.63;66.43;;;;;;;-2.51;100.00;99949.63;2125426;27;20227;-79
2020/12/19 04:08:53;;;;;;;384.83;71.32;;;;;;;-2.49;100.00;99944.22;2115640;28;20298;-80
2020/12/19 04:09:54;;;;;;;344.17;68.03;;;;;;;-2.57;100.00;99943.34;2115468;28;20444;-80
2020/12/19 04:10:56;;;;;;;341.52;68.75;;;;;;;-2.53;100.00;99948.97;2115763;28;20236;-80
2020/12/19 04:11:57;;;;;;;216.45;59.67;;;;;;;-2.61;100.00;99936.06;2105008;28;20320;-79
2020/12/19 04:12:58;;;;;;;353.23;68.40;;;;;;;-2.60;100.00;99933.28;2115510;28;20224;-80
2020/12/19 04:13:59;;;;;;;288.93;65.30;;;;;;;-2.59;100.00;99942.72;2108093;28;20285;-80
2020/12/19 04:15:01;;;;;;;264.48;61.83;;;;;;;-2.59;100.00;99944.53;2107208;28;20264;-80
2020/12/19 04:16:03;;;;;;;289.73;65.30;;;;;;;-2.59;100.00;99949.75;2122579;27;20288;-80
2020/12/19 04:17:08;;;;;;;271.00;65.00;;;;;;;-2.61;100.00;99947.34;2116415;28;20242;-81
2020/12/19 04:18:10;;;;;;;279.52;64.82;;;;;;;-2.63;100.00;99943.28;2108061;28;20229;-80
2020/12/19 04:19:10;;;;;;;387.10;66.40;;;;;;;-2.62;100.00;99950.91;2117124;28;20298;-81
2020/12/19 04:20:12;;;;;;;448.80;73.83;;;;;;;-2.64;100.00;99946.88;2116522;28;20754;-80
2020/12/19 04:21:12;;;;;;;344.42;66.63;;;;;;;-2.61;100.00;99952.56;2108609;28;20221;-81
2020/12/19 04:22:14;;;;;;;304.90;66.47;;;;;;;-2.61;100.00;99952.56;2116454;28;20223;-81
2020/12/19 04:23:16;;;;;;;329.33;68.90;;;;;;;-2.61;100.00;99946.50;2116051;28;20220;-81
2020/12/19 04:24:17;;;;;;;401.05;68.72;;;;;;;-2.61;100.00;99946.50;2116727;28;21183;-81
2020/12/19 04:25:17;;;;;;;363.23;68.55;;;;;;;-2.66;100.00;99947.09;2116742;28;20217;-81
2020/12/19 04:26:20;;;;;;;214.67;61.53;;;;;;;-2.64;100.00;99941.66;2115544;28;20221;-80
2020/12/19 04:27:20;;;;;;;368.90;70.15;;;;;;;-2.67;100.00;99940.25;2115477;28;20231;-80
2020/12/19 04:28:21;;;;;;;381.47;69.10;;;;;;;-2.62;100.00;99942.28;2124089;27;20307;-80
2020/12/19 04:29:22;;;;;;;364.35;67.63;;;;;;;-2.61;100.00;99944.72;2123687;27;20226;-79
2020/12/19 04:30:23;;;;;;;290.07;63.67;;;;;;;-2.61;100.00;99942.13;2114247;28;20247;-79
2020/12/19 04:31:24;;;;;;;316.25;70.38;;;;;;;-2.55;100.00;99945.75;2114881;28;20217;-80
2020/12/19 04:32:25;;;;;;;336.63;66.17;;;;;;;-2.56;100.00;99949.38;2114796;28;20221;-80
2020/12/19 04:33:26;;;;;;;294.25;64.57;;;;;;;-2.58;100.00;99946.16;2114446;28;20755;-80